sensor_id;sensor_type;location;lat;lon;timestamp;temperature;humidity
59208;DHT22;44977;53.132;6.408;2022-12-07T00:02:45;3.50;99.90
59208;DHT22;44977;53.132;6.408;2022-12-07T00:07:45;3.50;99.90
59208;DHT22;44977;53.132;6.408;2022-12-07T00:12:46;3.50;99.90
59208;DHT22;44977;53.132;6.408;2022-12-07T00:17:47;3.50;99.90
59208;DHT22;44977;53.132;6.408;2022-12-07T00:22:47;3.50;99.90
59208;DHT22;44977;53.132;6.408;2022-12-07T00:27:48;3.50;99.90
59208;DHT22;44977;53.132;6.408;2022-12-07T00:32:49;3.50;99.90
59208;DHT22;44977;53.132;6.408;2022-12-07T00:37:50;3.50;99.90
59208;DHT22;44977;53.132;6.408;2022-12-07T00:42:51;3.60;99.90
59208;DHT22;44977;53.132;6.408;2022-12-07T00:47:51;3.60;99.90
59208;DHT22;44977;53.132;6.408;2022-12-07T00:52:52;3.60;99.90
59208;DHT22;44977;53.132;6.408;2022-12-07T00:57:52;3.60;99.90
59208;DHT22;44977;53.132;6.408;2022-12-07T01:02:53;3.60;99.90
59208;DHT22;44977;53.132;6.408;2022-12-07T01:07:54;3.50;99.90
59208;DHT22;44977;53.132;6.408;2022-12-07T01:12:54;3.60;99.90
59208;DHT22;44977;53.132;6.408;2022-12-07T01:17:55;3.60;99.90
59208;DHT22;44977;53.132;6.408;2022-12-07T01:22:56;3.60;99.90
59208;DHT22;44977;53.132;6.408;2022-12-07T01:27:56;3.70;99.90
59208;DHT22;44977;53.132;6.408;2022-12-07T01:32:57;3.70;99.90
59208;DHT22;44977;53.132;6.408;2022-12-07T01:37:58;3.70;99.90
59208;DHT22;44977;53.132;6.408;2022-12-07T01:42:58;3.80;99.90
59208;DHT22;44977;53.132;6.408;2022-12-07T01:47:59;3.80;99.90
59208;DHT22;44977;53.132;6.408;2022-12-07T01:53:03;3.80;99.90
59208;DHT22;44977;53.132;6.408;2022-12-07T01:58:04;3.80;99.90
59208;DHT22;44977;53.132;6.408;2022-12-07T02:03:13;3.80;99.90
59208;DHT22;44977;53.132;6.408;2022-12-07T02:08:16;3.80;99.90
59208;DHT22;44977;53.132;6.408;2022-12-07T02:13:26;3.80;99.90
59208;DHT22;44977;53.132;6.408;2022-12-07T02:25:02;3.70;99.90
59208;DHT22;44977;53.132;6.408;2022-12-07T02:40:22;3.70;99.90
59208;DHT22;44977;53.132;6.408;2022-12-07T02:45:25;3.80;99.90
59208;DHT22;44977;53.132;6.408;2022-12-07T02:50:28;3.70;99.90
59208;DHT22;44977;53.132;6.408;2022-12-07T02:55:37;3.80;99.90
59208;DHT22;44977;53.132;6.408;2022-12-07T03:00:54;3.80;99.90
59208;DHT22;44977;53.132;6.408;2022-12-07T03:06:13;3.70;99.90
59208;DHT22;44977;53.132;6.408;2022-12-07T03:11:25;3.70;99.90
59208;DHT22;44977;53.132;6.408;2022-12-07T03:16:35;3.70;99.90
59208;DHT22;44977;53.132;6.408;2022-12-07T03:21:44;3.70;99.90
59208;DHT22;44977;53.132;6.408;2022-12-07T03:26:49;3.70;99.90
59208;DHT22;44977;53.132;6.408;2022-12-07T03:31:57;3.80;99.90
59208;DHT22;44977;53.132;6.408;2022-12-07T03:37:12;3.80;99.90
59208;DHT22;44977;53.132;6.408;2022-12-07T03:42:15;3.70;99.90
59208;DHT22;44977;53.132;6.408;2022-12-07T03:47:53;3.70;99.90
59208;DHT22;44977;53.132;6.408;2022-12-07T03:53:02;3.70;99.90
59208;DHT22;44977;53.132;6.408;2022-12-07T03:58:12;3.70;99.90
59208;DHT22;44977;53.132;6.408;2022-12-07T04:03:14;3.60;99.90
59208;DHT22;44977;53.132;6.408;2022-12-07T04:08:14;3.60;99.90
59208;DHT22;44977;53.132;6.408;2022-12-07T04:13:15;3.60;99.90
59208;DHT22;44977;53.132;6.408;2022-12-07T04:18:16;3.60;99.90
59208;DHT22;44977;53.132;6.408;2022-12-07T04:23:16;3.70;99.90
59208;DHT22;44977;53.132;6.408;2022-12-07T04:28:17;3.60;99.90
59208;DHT22;44977;53.132;6.408;2022-12-07T04:33:18;3.70;99.90
59208;DHT22;44977;53.132;6.408;2022-12-07T04:38:18;3.60;99.90
59208;DHT22;44977;53.132;6.408;2022-12-07T04:43:19;3.60;99.90
59208;DHT22;44977;53.132;6.408;2022-12-07T04:48:20;3.60;99.90
59208;DHT22;44977;53.132;6.408;2022-12-07T04:53:20;3.60;99.90
59208;DHT22;44977;53.132;6.408;2022-12-07T04:58:21;3.60;99.90
59208;DHT22;44977;53.132;6.408;2022-12-07T05:03:22;3.50;99.90
59208;DHT22;44977;53.132;6.408;2022-12-07T05:08:23;3.50;99.90
59208;DHT22;44977;53.132;6.408;2022-12-07T05:13:23;3.50;99.90
59208;DHT22;44977;53.132;6.408;2022-12-07T05:18:24;3.40;99.90
59208;DHT22;44977;53.132;6.408;2022-12-07T05:23:25;3.30;99.90
59208;DHT22;44977;53.132;6.408;2022-12-07T05:28:26;3.30;99.90
59208;DHT22;44977;53.132;6.408;2022-12-07T05:33:26;3.20;99.90
59208;DHT22;44977;53.132;6.408;2022-12-07T05:38:27;3.20;99.90
59208;DHT22;44977;53.132;6.408;2022-12-07T05:43:28;3.20;99.90
59208;DHT22;44977;53.132;6.408;2022-12-07T05:48:29;3.20;99.90
59208;DHT22;44977;53.132;6.408;2022-12-07T05:53:30;3.10;99.90
59208;DHT22;44977;53.132;6.408;2022-12-07T05:58:30;3.10;99.90
59208;DHT22;44977;53.132;6.408;2022-12-07T06:03:50;3.10;99.90
59208;DHT22;44977;53.132;6.408;2022-12-07T06:08:50;3.10;99.90
59208;DHT22;44977;53.132;6.408;2022-12-07T06:13:51;3.10;99.90
59208;DHT22;44977;53.132;6.408;2022-12-07T06:18:52;3.10;99.90
59208;DHT22;44977;53.132;6.408;2022-12-07T06:23:54;3.10;99.90
59208;DHT22;44977;53.132;6.408;2022-12-07T06:28:55;3.20;99.90
59208;DHT22;44977;53.132;6.408;2022-12-07T06:34:04;3.30;99.90
59208;DHT22;44977;53.132;6.408;2022-12-07T06:39:06;3.30;99.90
59208;DHT22;44977;53.132;6.408;2022-12-07T06:44:08;3.30;99.90
59208;DHT22;44977;53.132;6.408;2022-12-07T06:49:08;3.20;99.90
59208;DHT22;44977;53.132;6.408;2022-12-07T06:54:10;3.20;99.90
59208;DHT22;44977;53.132;6.408;2022-12-07T06:59:11;3.20;99.90
59208;DHT22;44977;53.132;6.408;2022-12-07T07:04:12;3.20;99.90
59208;DHT22;44977;53.132;6.408;2022-12-07T07:09:12;3.20;99.90
59208;DHT22;44977;53.132;6.408;2022-12-07T07:14:13;3.10;99.90
59208;DHT22;44977;53.132;6.408;2022-12-07T07:19:19;3.10;99.90
59208;DHT22;44977;53.132;6.408;2022-12-07T07:24:19;3.10;99.90
59208;DHT22;44977;53.132;6.408;2022-12-07T07:29:20;3.10;99.90
59208;DHT22;44977;53.132;6.408;2022-12-07T07:34:21;3.00;99.90
59208;DHT22;44977;53.132;6.408;2022-12-07T07:39:22;3.00;99.90
59208;DHT22;44977;53.132;6.408;2022-12-07T07:44:23;3.00;99.90
59208;DHT22;44977;53.132;6.408;2022-12-07T07:49:23;2.90;99.90
59208;DHT22;44977;53.132;6.408;2022-12-07T07:54:24;2.90;99.90
59208;DHT22;44977;53.132;6.408;2022-12-07T07:59:25;2.90;99.90
59208;DHT22;44977;53.132;6.408;2022-12-07T08:04:25;2.80;99.90
59208;DHT22;44977;53.132;6.408;2022-12-07T08:09:26;2.80;99.90
59208;DHT22;44977;53.132;6.408;2022-12-07T08:14:27;2.90;99.90
59208;DHT22;44977;53.132;6.408;2022-12-07T08:19:29;2.90;99.90
59208;DHT22;44977;53.132;6.408;2022-12-07T08:24:29;2.90;99.90
59208;DHT22;44977;53.132;6.408;2022-12-07T08:29:30;2.90;99.90
59208;DHT22;44977;53.132;6.408;2022-12-07T08:34:31;3.00;99.90
59208;DHT22;44977;53.132;6.408;2022-12-07T08:39:31;3.00;99.90
59208;DHT22;44977;53.132;6.408;2022-12-07T08:44:32;3.00;99.90
59208;DHT22;44977;53.132;6.408;2022-12-07T08:49:38;3.00;99.90
59208;DHT22;44977;53.132;6.408;2022-12-07T08:54:40;3.10;99.90
59208;DHT22;44977;53.132;6.408;2022-12-07T08:59:41;3.10;99.90
59208;DHT22;44977;53.132;6.408;2022-12-07T09:04:42;3.20;99.90
59208;DHT22;44977;53.132;6.408;2022-12-07T09:09:42;3.30;99.90
59208;DHT22;44977;53.132;6.408;2022-12-07T09:14:43;3.50;99.90
59208;DHT22;44977;53.132;6.408;2022-12-07T09:19:44;3.80;99.90
59208;DHT22;44977;53.132;6.408;2022-12-07T09:24:44;3.90;99.90
59208;DHT22;44977;53.132;6.408;2022-12-07T09:29:46;4.00;99.90
59208;DHT22;44977;53.132;6.408;2022-12-07T09:34:46;4.00;99.90
59208;DHT22;44977;53.132;6.408;2022-12-07T09:39:47;4.00;99.90
59208;DHT22;44977;53.132;6.408;2022-12-07T09:44:48;4.00;99.90
59208;DHT22;44977;53.132;6.408;2022-12-07T09:49:48;4.00;99.90
59208;DHT22;44977;53.132;6.408;2022-12-07T09:54:50;4.00;99.90
59208;DHT22;44977;53.132;6.408;2022-12-07T09:59:51;4.00;99.90
59208;DHT22;44977;53.132;6.408;2022-12-07T10:04:52;4.00;99.90
59208;DHT22;44977;53.132;6.408;2022-12-07T10:09:52;4.00;99.90
59208;DHT22;44977;53.132;6.408;2022-12-07T10:15:00;4.20;99.90
59208;DHT22;44977;53.132;6.408;2022-12-07T10:20:13;4.40;99.90
59208;DHT22;44977;53.132;6.408;2022-12-07T10:25:19;4.60;99.90
59208;DHT22;44977;53.132;6.408;2022-12-07T10:30:20;4.60;99.90
59208;DHT22;44977;53.132;6.408;2022-12-07T10:35:27;4.70;99.90
59208;DHT22;44977;53.132;6.408;2022-12-07T10:40:33;4.80;99.90
59208;DHT22;44977;53.132;6.408;2022-12-07T10:45:35;4.90;99.90
59208;DHT22;44977;53.132;6.408;2022-12-07T10:50:56;5.00;99.90
59208;DHT22;44977;53.132;6.408;2022-12-07T11:02:01;5.20;99.90
59208;DHT22;44977;53.132;6.408;2022-12-07T11:07:19;5.30;99.90
59208;DHT22;44977;53.132;6.408;2022-12-07T11:33:45;5.50;99.90
59208;DHT22;44977;53.132;6.408;2022-12-07T11:38:53;5.50;99.90
59208;DHT22;44977;53.132;6.408;2022-12-07T11:44:06;5.50;99.90
59208;DHT22;44977;53.132;6.408;2022-12-07T11:54:35;5.70;99.90
59208;DHT22;44977;53.132;6.408;2022-12-07T11:59:47;5.70;99.90
59208;DHT22;44977;53.132;6.408;2022-12-07T12:04:58;5.80;99.90
59208;DHT22;44977;53.132;6.408;2022-12-07T12:10:06;5.80;99.90
59208;DHT22;44977;53.132;6.408;2022-12-07T12:21:04;6.00;99.90
59208;DHT22;44977;53.132;6.408;2022-12-07T12:26:17;6.00;99.90
59208;DHT22;44977;53.132;6.408;2022-12-07T12:46:50;5.80;99.90
59208;DHT22;44977;53.132;6.408;2022-12-07T12:57:34;5.20;99.90
59208;DHT22;44977;53.132;6.408;2022-12-07T13:02:36;5.10;99.90
59208;DHT22;44977;53.132;6.408;2022-12-07T13:23:33;4.90;99.90
59208;DHT22;44977;53.132;6.408;2022-12-07T13:28:40;4.90;99.90
59208;DHT22;44977;53.132;6.408;2022-12-07T13:33:46;4.80;99.90
59208;DHT22;44977;53.132;6.408;2022-12-07T13:38:55;4.80;99.90
59208;DHT22;44977;53.132;6.408;2022-12-07T13:44:09;4.80;99.90
59208;DHT22;44977;53.132;6.408;2022-12-07T13:49:22;4.70;99.90
59208;DHT22;44977;53.132;6.408;2022-12-07T13:54:23;4.70;99.90
59208;DHT22;44977;53.132;6.408;2022-12-07T13:59:25;4.70;99.90
59208;DHT22;44977;53.132;6.408;2022-12-07T14:04:33;4.70;99.90
59208;DHT22;44977;53.132;6.408;2022-12-07T14:09:34;4.60;99.90
59208;DHT22;44977;53.132;6.408;2022-12-07T14:14:34;4.60;99.90
59208;DHT22;44977;53.132;6.408;2022-12-07T14:19:55;4.60;99.90
59208;DHT22;44977;53.132;6.408;2022-12-07T14:30:17;4.50;99.90
59208;DHT22;44977;53.132;6.408;2022-12-07T14:35:18;4.50;99.90
59208;DHT22;44977;53.132;6.408;2022-12-07T14:40:22;4.60;99.90
59208;DHT22;44977;53.132;6.408;2022-12-07T14:45:23;4.50;99.90
59208;DHT22;44977;53.132;6.408;2022-12-07T14:50:24;4.60;99.90
59208;DHT22;44977;53.132;6.408;2022-12-07T14:55:27;4.50;99.90
59208;DHT22;44977;53.132;6.408;2022-12-07T15:00:28;4.40;99.90
59208;DHT22;44977;53.132;6.408;2022-12-07T15:05:29;4.40;99.90
59208;DHT22;44977;53.132;6.408;2022-12-07T15:10:33;4.30;99.90
59208;DHT22;44977;53.132;6.408;2022-12-07T15:15:34;4.30;99.90
59208;DHT22;44977;53.132;6.408;2022-12-07T15:20:34;4.20;99.90
59208;DHT22;44977;53.132;6.408;2022-12-07T15:25:35;4.10;99.90
59208;DHT22;44977;53.132;6.408;2022-12-07T15:30:40;4.10;99.90
59208;DHT22;44977;53.132;6.408;2022-12-07T15:35:42;4.10;99.90
59208;DHT22;44977;53.132;6.408;2022-12-07T15:40:46;4.00;99.90
59208;DHT22;44977;53.132;6.408;2022-12-07T15:45:49;4.00;99.90
59208;DHT22;44977;53.132;6.408;2022-12-07T15:50:50;3.90;99.90
59208;DHT22;44977;53.132;6.408;2022-12-07T15:55:51;4.00;99.90
59208;DHT22;44977;53.132;6.408;2022-12-07T16:00:51;3.90;99.90
59208;DHT22;44977;53.132;6.408;2022-12-07T16:05:53;3.90;99.90
59208;DHT22;44977;53.132;6.408;2022-12-07T16:10:53;3.90;99.90
59208;DHT22;44977;53.132;6.408;2022-12-07T16:15:54;3.90;99.90
59208;DHT22;44977;53.132;6.408;2022-12-07T16:20:54;3.90;99.90
59208;DHT22;44977;53.132;6.408;2022-12-07T16:26:07;3.90;99.90
59208;DHT22;44977;53.132;6.408;2022-12-07T16:31:14;3.90;99.90
59208;DHT22;44977;53.132;6.408;2022-12-07T16:36:15;3.90;99.90
59208;DHT22;44977;53.132;6.408;2022-12-07T16:41:16;4.00;99.90
59208;DHT22;44977;53.132;6.408;2022-12-07T16:46:18;3.90;99.90
59208;DHT22;44977;53.132;6.408;2022-12-07T16:51:18;4.00;99.90
59208;DHT22;44977;53.132;6.408;2022-12-07T16:56:19;4.00;99.90
59208;DHT22;44977;53.132;6.408;2022-12-07T17:01:21;4.00;99.90
59208;DHT22;44977;53.132;6.408;2022-12-07T17:06:25;4.00;99.90
59208;DHT22;44977;53.132;6.408;2022-12-07T17:11:28;3.90;99.90
59208;DHT22;44977;53.132;6.408;2022-12-07T17:16:29;3.90;99.90
59208;DHT22;44977;53.132;6.408;2022-12-07T17:21:30;3.90;99.90
59208;DHT22;44977;53.132;6.408;2022-12-07T17:26:31;3.90;99.90
59208;DHT22;44977;53.132;6.408;2022-12-07T17:31:33;3.80;99.90
59208;DHT22;44977;53.132;6.408;2022-12-07T17:36:34;3.80;99.90
59208;DHT22;44977;53.132;6.408;2022-12-07T17:41:34;3.80;99.90
59208;DHT22;44977;53.132;6.408;2022-12-07T17:46:56;3.80;99.90
59208;DHT22;44977;53.132;6.408;2022-12-07T17:52:01;3.80;99.90
59208;DHT22;44977;53.132;6.408;2022-12-07T17:57:21;3.80;99.90
59208;DHT22;44977;53.132;6.408;2022-12-07T18:02:21;3.80;99.90
59208;DHT22;44977;53.132;6.408;2022-12-07T18:07:22;3.70;99.90
59208;DHT22;44977;53.132;6.408;2022-12-07T18:12:23;3.70;99.90
59208;DHT22;44977;53.132;6.408;2022-12-07T18:17:23;3.70;99.90
59208;DHT22;44977;53.132;6.408;2022-12-07T18:22:24;3.70;99.90
59208;DHT22;44977;53.132;6.408;2022-12-07T18:27:25;3.70;99.90
59208;DHT22;44977;53.132;6.408;2022-12-07T18:32:25;3.60;99.90
59208;DHT22;44977;53.132;6.408;2022-12-07T18:37:28;3.60;99.90
59208;DHT22;44977;53.132;6.408;2022-12-07T18:42:29;3.50;99.90
59208;DHT22;44977;53.132;6.408;2022-12-07T18:47:29;3.50;99.90
59208;DHT22;44977;53.132;6.408;2022-12-07T18:52:30;3.40;99.90
59208;DHT22;44977;53.132;6.408;2022-12-07T18:57:31;3.40;99.90
59208;DHT22;44977;53.132;6.408;2022-12-07T19:02:33;3.40;99.90
59208;DHT22;44977;53.132;6.408;2022-12-07T19:07:34;3.40;99.90
59208;DHT22;44977;53.132;6.408;2022-12-07T19:12:35;3.40;99.90
59208;DHT22;44977;53.132;6.408;2022-12-07T19:17:36;3.30;99.90
59208;DHT22;44977;53.132;6.408;2022-12-07T19:22:37;3.30;99.90
59208;DHT22;44977;53.132;6.408;2022-12-07T19:27:37;3.30;99.90
59208;DHT22;44977;53.132;6.408;2022-12-07T19:32:38;3.30;99.90
59208;DHT22;44977;53.132;6.408;2022-12-07T19:37:39;3.30;99.90
59208;DHT22;44977;53.132;6.408;2022-12-07T19:42:39;3.30;99.90
59208;DHT22;44977;53.132;6.408;2022-12-07T19:47:40;3.30;99.90
59208;DHT22;44977;53.132;6.408;2022-12-07T19:52:41;3.30;99.90
59208;DHT22;44977;53.132;6.408;2022-12-07T19:57:41;3.20;99.90
59208;DHT22;44977;53.132;6.408;2022-12-07T20:02:42;3.20;99.90
59208;DHT22;44977;53.132;6.408;2022-12-07T20:07:43;3.20;99.90
59208;DHT22;44977;53.132;6.408;2022-12-07T20:12:43;3.20;99.90
59208;DHT22;44977;53.132;6.408;2022-12-07T20:18:03;3.20;99.90
59208;DHT22;44977;53.132;6.408;2022-12-07T20:23:03;3.20;99.90
59208;DHT22;44977;53.132;6.408;2022-12-07T20:28:04;3.10;99.90
59208;DHT22;44977;53.132;6.408;2022-12-07T20:33:05;3.10;99.90
59208;DHT22;44977;53.132;6.408;2022-12-07T20:38:06;3.10;99.90
59208;DHT22;44977;53.132;6.408;2022-12-07T20:43:07;3.00;99.90
59208;DHT22;44977;53.132;6.408;2022-12-07T20:48:08;3.00;99.90
59208;DHT22;44977;53.132;6.408;2022-12-07T20:53:09;3.00;99.90
59208;DHT22;44977;53.132;6.408;2022-12-07T20:58:09;3.00;99.90
59208;DHT22;44977;53.132;6.408;2022-12-07T21:03:10;2.90;99.90
59208;DHT22;44977;53.132;6.408;2022-12-07T21:08:11;2.90;99.90
59208;DHT22;44977;53.132;6.408;2022-12-07T21:13:11;2.90;99.90
59208;DHT22;44977;53.132;6.408;2022-12-07T21:18:12;2.90;99.90
59208;DHT22;44977;53.132;6.408;2022-12-07T21:23:13;2.90;99.90
59208;DHT22;44977;53.132;6.408;2022-12-07T21:28:13;2.90;99.90
59208;DHT22;44977;53.132;6.408;2022-12-07T21:33:14;2.90;99.90
59208;DHT22;44977;53.132;6.408;2022-12-07T21:38:15;2.80;99.90
59208;DHT22;44977;53.132;6.408;2022-12-07T21:43:16;2.80;99.90
59208;DHT22;44977;53.132;6.408;2022-12-07T21:48:16;2.80;99.90
59208;DHT22;44977;53.132;6.408;2022-12-07T21:53:17;2.80;99.90
59208;DHT22;44977;53.132;6.408;2022-12-07T21:58:18;2.80;99.90
59208;DHT22;44977;53.132;6.408;2022-12-07T22:03:18;2.80;99.90
59208;DHT22;44977;53.132;6.408;2022-12-07T22:08:19;2.80;99.90
59208;DHT22;44977;53.132;6.408;2022-12-07T22:13:20;2.80;99.90
59208;DHT22;44977;53.132;6.408;2022-12-07T22:18:21;2.80;99.90
59208;DHT22;44977;53.132;6.408;2022-12-07T22:23:21;2.80;99.90
59208;DHT22;44977;53.132;6.408;2022-12-07T22:28:22;2.80;99.90
59208;DHT22;44977;53.132;6.408;2022-12-07T22:33:23;2.80;99.90
59208;DHT22;44977;53.132;6.408;2022-12-07T22:38:24;2.80;99.90
59208;DHT22;44977;53.132;6.408;2022-12-07T22:43:25;2.80;99.90
59208;DHT22;44977;53.132;6.408;2022-12-07T22:48:26;2.80;99.90
59208;DHT22;44977;53.132;6.408;2022-12-07T22:53:27;2.80;99.90
59208;DHT22;44977;53.132;6.408;2022-12-07T22:58:28;2.80;99.90
59208;DHT22;44977;53.132;6.408;2022-12-07T23:03:29;2.80;99.90
59208;DHT22;44977;53.132;6.408;2022-12-07T23:08:29;2.70;99.90
59208;DHT22;44977;53.132;6.408;2022-12-07T23:13:30;2.80;99.90
59208;DHT22;44977;53.132;6.408;2022-12-07T23:18:41;2.70;99.90
59208;DHT22;44977;53.132;6.408;2022-12-07T23:23:42;2.70;99.90
59208;DHT22;44977;53.132;6.408;2022-12-07T23:28:42;2.70;99.90
59208;DHT22;44977;53.132;6.408;2022-12-07T23:33:43;2.70;99.90
59208;DHT22;44977;53.132;6.408;2022-12-07T23:38:45;2.70;99.90
59208;DHT22;44977;53.132;6.408;2022-12-07T23:43:47;2.70;99.90
59208;DHT22;44977;53.132;6.408;2022-12-07T23:48:49;2.70;99.90
59208;DHT22;44977;53.132;6.408;2022-12-07T23:53:51;2.70;99.90
59208;DHT22;44977;53.132;6.408;2022-12-07T23:58:53;2.70;99.90
